Hlavní strana
METAR-TAF:

METAR-TAF

Letiště :

Faro, Portugalsko

zeměpisná šířka: 37-01N, zeměpisná délka: 007-58W, výška: 7 m

Aktuální stav počasí

Zpráva byla vytvořena před 33 minutami, v 12:30 UTC
Východojihovýchodní vítr 11 kt
Teplota 17°C
Vlhkost vzduchu 72%
Tlak 1017 hPa
Viditelnost 10 km a více
Skoro jasno ve výšce 2000 ft

METAR: LPFR 011230Z 11011KT 9999 FEW020 17/12 Q1017

Čas: 13:03 (13:03 UTC)

Předpověď počasí

Zpráva byla vytvořena před 2 hodinami a 3 minutami, v 11:00 UTC
Předpověď platná od 01 v 12 UTC do 02 v 12 UTC
Východní vítr 10 kt
Viditelnost 10 km a více
Polojasno ve výšce 4000 ft
Změna
od 01 v 16 UTC do 01 v 18 UTC
vítr z různých směrů 2 kt
Změna
od 01 v 23 UTC do 02 v 02 UTC
Severoseverovýchodní vítr 5 kt
Viditelnost 10 km a více
Žádná oblačnost pod 1500 m, nevyskytují se cumulonimby.
Změna
od 02 v 10 UTC do 02 v 12 UTC
Jižní vítr 5 kt

TAF: LPFR 011100Z 0112/0212 09010KT 9999 SCT040 BECMG 0116/0118 VRB02KT BECMG 0123/0202 02005KT CAVOK BECMG 0210/0212 17005KT

Stav a předpovědi počasí z více než 4 000 letišť (zprávy METAR a TAF).

Červené a žluté tečky na mapě představují dostupné meteorologické stanice.

Když kurzor umístíte na tečku, zobrazí se název stanice.

Pak kliknutím zobrazíte stav a předpověď počasí.

Chcete-li změnit mapu, kliknutím na zelené tlačítko se znaménkem +mapu přiblížíte, kliknutím na zelené tlačítko se znaménkem – mapu oddálíte a kliknutím na zelené šipky přejdete na sousední mapy.


METAR-TAF: